Time;durP1;ratioP1;P1;durP2;ratioP2;P2;SDS_P1;SDS_P2;PMS_P1;PMS_P2;Temp;Humidity;BMP_temperature;BMP_pressure;BME280_temperature;BME280_humidity;BME280_pressure;Samples;Min_cycle;Max_cycle;Signal;HPM_P1;HPM_P2
2023/07/17 00:00:51;;;;;;;4.60;2.85;;;;;;;;;;5107651;27;42301;-67
2023/07/17 00:03:19;;;;;;;3.45;2.20;;;;;;;;;;5108348;27;41339;-67
2023/07/17 00:05:47;;;;;;;3.80;2.63;;;;;;;;;;5108574;27;40981;-67
2023/07/17 00:08:15;;;;;;;3.97;2.42;;;;;;;;;;5108147;27;41905;-67
2023/07/17 00:10:45;;;;;;;3.72;2.47;;;;;;;;;;5108680;27;41499;-67
2023/07/17 00:13:13;;;;;;;3.72;2.70;;;;;;;;;;5108786;27;43129;-67
2023/07/17 00:15:41;;;;;;;5.63;2.40;;;;;;;;;;5103915;27;40282;-70
2023/07/17 00:18:09;;;;;;;4.88;2.70;;;;;;;;;;5099309;27;42673;-67
2023/07/17 00:20:37;;;;;;;3.78;2.53;;;;;;;;;;5106051;28;41638;-67
2023/07/17 00:23:05;;;;;;;3.72;2.80;;;;;;;;;;5107819;27;40312;-67
2023/07/17 00:25:36;;;;;;;4.05;2.30;;;;;;;;;;5106281;27;42119;-67
2023/07/17 00:28:05;;;;;;;3.60;2.35;;;;;;;;;;5101841;27;42942;-67
2023/07/17 00:30:33;;;;;;;2.70;2.15;;;;;;;;;;5086762;28;40360;-67
2023/07/17 00:33:01;;;;;;;3.10;2.38;;;;;;;;;;5102198;28;42371;-67
2023/07/17 00:35:29;;;;;;;2.58;2.22;;;;;;;;;;5107534;27;41086;-67
2023/07/17 00:37:57;;;;;;;2.85;2.10;;;;;;;;;;5105685;28;40736;-67
2023/07/17 00:40:25;;;;;;;3.03;2.25;;;;;;;;;;5107159;27;43102;-67
2023/07/17 00:42:56;;;;;;;3.08;2.20;;;;;;;;;;5108538;28;40956;-68
2023/07/17 00:45:26;;;;;;;3.78;2.80;;;;;;;;;;5106876;27;40353;-68
2023/07/17 00:47:54;;;;;;;3.50;2.38;;;;;;;;;;5088025;28;43051;-68
2023/07/17 00:50:23;;;;;;;4.80;2.15;;;;;;;;;;5085163;28;39042;-68
2023/07/17 00:52:51;;;;;;;3.53;2.30;;;;;;;;;;5111257;27;40791;-68
2023/07/17 00:55:19;;;;;;;2.83;2.10;;;;;;;;;;5090463;28;40507;-68
2023/07/17 00:57:47;;;;;;;3.42;2.40;;;;;;;;;;5102560;28;40785;-67
2023/07/17 01:00:17;;;;;;;5.00;2.67;;;;;;;;;;5085804;28;41134;-67
2023/07/17 01:02:47;;;;;;;3.10;2.10;;;;;;;;;;5087627;28;40317;-68
2023/07/17 01:05:15;;;;;;;2.90;1.98;;;;;;;;;;5086713;28;41652;-68
2023/07/17 01:07:43;;;;;;;3.08;2.30;;;;;;;;;;5096499;28;43067;-68
2023/07/17 01:10:11;;;;;;;3.05;2.28;;;;;;;;;;5089919;28;40850;-68
2023/07/17 01:12:39;;;;;;;4.43;2.70;;;;;;;;;;5086345;28;41547;-68
2023/07/17 01:15:07;;;;;;;3.28;2.47;;;;;;;;;;5088066;28;42333;-68
2023/07/17 01:17:35;;;;;;;3.15;2.47;;;;;;;;;;5091178;28;40265;-68
2023/07/17 01:20:06;;;;;;;4.55;2.55;;;;;;;;;;5107513;28;42607;-68
2023/07/17 01:22:36;;;;;;;2.88;2.10;;;;;;;;;;5105726;28;39018;-68
2023/07/17 01:25:06;;;;;;;3.55;2.40;;;;;;;;;;5104687;28;40358;-69
2023/07/17 01:27:35;;;;;;;4.53;2.75;;;;;;;;;;5104650;28;41465;-68
2023/07/17 01:30:04;;;;;;;3.17;2.33;;;;;;;;;;5106491;28;41504;-68
2023/07/17 01:32:33;;;;;;;3.00;2.20;;;;;;;;;;5104933;28;40554;-68
2023/07/17 01:35:05;;;;;;;5.63;2.67;;;;;;;;;;5106293;28;40827;-68
2023/07/17 01:37:33;;;;;;;3.88;2.72;;;;;;;;;;5105247;28;40127;-68
2023/07/17 01:40:03;;;;;;;3.90;2.53;;;;;;;;;;5105108;28;42241;-68
2023/07/17 01:42:33;;;;;;;2.97;2.40;;;;;;;;;;5121739;27;38995;-68
2023/07/17 01:45:01;;;;;;;4.90;2.95;;;;;;;;;;5107225;28;41561;-68
2023/07/17 01:47:29;;;;;;;4.57;2.40;;;;;;;;;;5104359;28;40549;-68
2023/07/17 01:49:57;;;;;;;4.13;2.63;;;;;;;;;;5107250;28;40225;-68
2023/07/17 01:52:25;;;;;;;4.43;2.50;;;;;;;;;;5106399;28;41162;-68
2023/07/17 01:54:53;;;;;;;4.13;2.60;;;;;;;;;;5106072;28;41669;-68
2023/07/17 01:57:21;;;;;;;4.20;2.40;;;;;;;;;;5106998;28;41977;-67
2023/07/17 01:59:51;;;;;;;3.00;2.30;;;;;;;;;;5122522;27;40597;-68
2023/07/17 02:02:19;;;;;;;3.78;2.63;;;;;;;;;;5105216;27;40916;-67
2023/07/17 02:04:47;;;;;;;3.15;2.28;;;;;;;;;;5105942;28;41126;-67
2023/07/17 02:07:16;;;;;;;3.88;2.30;;;;;;;;;;5106271;28;41795;-68
2023/07/17 02:09:44;;;;;;;3.45;2.38;;;;;;;;;;5107226;28;40375;-68
2023/07/17 02:12:12;;;;;;;3.38;2.42;;;;;;;;;;5107095;27;42750;-68
2023/07/17 02:14:40;;;;;;;4.05;2.55;;;;;;;;;;5105214;28;42076;-68
2023/07/17 02:17:09;;;;;;;3.05;2.28;;;;;;;;;;5106589;28;40975;-67
2023/07/17 02:19:37;;;;;;;3.40;2.10;;;;;;;;;;5106158;28;41399;-68
2023/07/17 02:22:05;;;;;;;2.78;2.00;;;;;;;;;;5105347;27;42180;-68
2023/07/17 02:24:33;;;;;;;4.25;2.50;;;;;;;;;;5106630;28;41457;-68
2023/07/17 02:27:02;;;;;;;2.88;1.95;;;;;;;;;;5101406;28;40783;-68
2023/07/17 02:29:31;;;;;;;3.25;2.47;;;;;;;;;;5099591;28;40528;-67
2023/07/17 02:31:59;;;;;;;3.55;2.45;;;;;;;;;;5105510;27;41957;-68
2023/07/17 02:34:28;;;;;;;3.05;2.35;;;;;;;;;;5085753;28;42259;-68
2023/07/17 02:36:57;;;;;;;4.47;2.55;;;;;;;;;;5086166;28;41203;-68
2023/07/17 02:39:25;;;;;;;2.53;2.17;;;;;;;;;;5101377;28;40211;-68
2023/07/17 02:41:53;;;;;;;3.03;2.38;;;;;;;;;;5085395;28;40298;-68
2023/07/17 02:44:21;;;;;;;4.05;2.45;;;;;;;;;;5087380;28;42643;-68
2023/07/17 02:46:49;;;;;;;2.97;2.20;;;;;;;;;;5105213;28;40497;-68
2023/07/17 02:49:17;;;;;;;3.28;2.67;;;;;;;;;;5107054;27;40313;-68
2023/07/17 02:51:46;;;;;;;3.35;1.92;;;;;;;;;;5110626;28;42544;-68
2023/07/17 02:54:14;;;;;;;3.28;2.30;;;;;;;;;;5108674;28;40351;-68
2023/07/17 02:56:43;;;;;;;3.13;2.30;;;;;;;;;;5107606;28;39802;-68
2023/07/17 02:59:11;;;;;;;2.60;2.25;;;;;;;;;;5125632;27;39995;-67
2023/07/17 03:01:39;;;;;;;4.30;2.08;;;;;;;;;;5109742;28;43004;-69
2023/07/17 03:04:07;;;;;;;3.25;2.28;;;;;;;;;;5110060;28;41911;-67
2023/07/17 03:06:35;;;;;;;3.15;2.20;;;;;;;;;;5109387;28;42515;-68
2023/07/17 03:09:04;;;;;;;2.83;2.40;;;;;;;;;;5109316;28;40199;-67
2023/07/17 03:11:32;;;;;;;3.33;2.50;;;;;;;;;;5108312;28;41614;-67
2023/07/17 03:14:02;;;;;;;3.25;2.40;;;;;;;;;;5107947;28;40480;-67
2023/07/17 03:16:30;;;;;;;3.70;2.20;;;;;;;;;;5107019;28;39075;-67
2023/07/17 03:18:58;;;;;;;3.47;2.20;;;;;;;;;;5109302;28;41144;-67
2023/07/17 03:21:26;;;;;;;4.32;2.80;;;;;;;;;;5107155;28;41766;-67
2023/07/17 03:23:54;;;;;;;4.95;2.47;;;;;;;;;;5124330;27;39602;-68
2023/07/17 03:26:23;;;;;;;3.60;2.40;;;;;;;;;;5107663;27;42591;-68
2023/07/17 03:28:52;;;;;;;4.22;2.47;;;;;;;;;;5109984;27;41402;-67
2023/07/17 03:31:20;;;;;;;3.90;2.40;;;;;;;;;;5108762;28;41505;-67
2023/07/17 03:33:48;;;;;;;3.63;2.60;;;;;;;;;;5106599;28;42320;-67
2023/07/17 03:36:16;;;;;;;2.45;2.20;;;;;;;;;;5109060;28;42204;-67
2023/07/17 03:38:44;;;;;;;4.43;2.25;;;;;;;;;;5108834;28;41095;-67
2023/07/17 03:41:12;;;;;;;3.60;2.55;;;;;;;;;;5107465;28;41491;-67
2023/07/17 03:43:42;;;;;;;3.67;2.53;;;;;;;;;;5124084;27;39032;-68
2023/07/17 03:46:10;;;;;;;4.63;2.15;;;;;;;;;;5106770;28;40854;-68
2023/07/17 03:48:38;;;;;;;5.13;2.53;;;;;;;;;;5107306;28;41640;-67
2023/07/17 03:51:09;;;;;;;4.03;2.17;;;;;;;;;;5107412;28;41324;-67
2023/07/17 03:53:38;;;;;;;3.63;2.30;;;;;;;;;;5106195;28;40589;-67
2023/07/17 03:56:07;;;;;;;2.28;1.80;;;;;;;;;;5107414;28;39733;-67
2023/07/17 03:58:34;;;;;;;4.35;1.83;;;;;;;;;;5108502;28;41596;-67
2023/07/17 04:01:04;;;;;;;4.10;2.17;;;;;;;;;;5101635;28;40583;-67
2023/07/17 04:03:39;;;;;;;4.18;2.22;;;;;;;;;;5104753;28;39294;-67
2023/07/17 04:06:08;;;;;;;2.92;2.25;;;;;;;;;;5123965;27;41077;-67
2023/07/17 04:08:38;;;;;;;3.03;2.40;;;;;;;;;;5106492;28;40542;-67
2023/07/17 04:11:06;;;;;;;5.05;2.40;;;;;;;;;;5107686;27;40693;-67
2023/07/17 04:13:35;;;;;;;3.47;2.25;;;;;;;;;;5094949;28;40500;-67
2023/07/17 04:16:05;;;;;;;4.03;2.30;;;;;;;;;;5106827;28;40318;-67
2023/07/17 04:18:33;;;;;;;3.38;2.22;;;;;;;;;;5106562;28;40109;-66
2023/07/17 04:21:01;;;;;;;3.17;2.05;;;;;;;;;;5106159;28;40621;-67
2023/07/17 04:23:30;;;;;;;2.90;2.20;;;;;;;;;;5106040;28;38909;-67
2023/07/17 04:26:01;;;;;;;4.45;2.42;;;;;;;;;;5106768;28;41651;-67
2023/07/17 04:28:29;;;;;;;5.35;2.50;;;;;;;;;;5122151;27;40709;-67
2023/07/17 04:30:57;;;;;;;3.20;2.00;;;;;;;;;;5107656;27;41973;-67
2023/07/17 04:33:26;;;;;;;4.75;2.30;;;;;;;;;;5106587;28;40650;-67
2023/07/17 04:35:56;;;;;;;3.38;2.03;;;;;;;;;;5107735;28;40057;-67
2023/07/17 04:38:24;;;;;;;2.83;2.17;;;;;;;;;;5106597;28;40334;-67
2023/07/17 04:40:52;;;;;;;2.63;2.03;;;;;;;;;;5106362;28;41894;-67
2023/07/17 04:43:20;;;;;;;3.17;2.20;;;;;;;;;;5105356;28;38844;-67
2023/07/17 04:45:48;;;;;;;3.03;2.38;;;;;;;;;;5100973;28;42149;-67
2023/07/17 04:48:20;;;;;;;4.68;2.33;;;;;;;;;;5085418;28;40658;-67
2023/07/17 04:50:50;;;;;;;3.38;2.17;;;;;;;;;;5087136;28;41242;-67
2023/07/17 04:53:18;;;;;;;3.00;2.13;;;;;;;;;;5086027;28;41526;-67
2023/07/17 04:55:45;;;;;;;2.40;1.83;;;;;;;;;;5087979;28;39979;-67
2023/07/17 04:58:13;;;;;;;5.03;2.30;;;;;;;;;;5086104;28;40195;-67
2023/07/17 05:00:45;;;;;;;5.00;2.15;;;;;;;;;;5086796;28;41074;-67
2023/07/17 05:03:14;;;;;;;5.38;2.65;;;;;;;;;;5105452;27;40226;-67
2023/07/17 05:05:47;;;;;;;3.88;2.10;;;;;;;;;;5106607;28;40963;-67
2023/07/17 05:08:18;;;;;;;3.60;2.28;;;;;;;;;;5107044;28;41003;-68
2023/07/17 05:10:53;;;;;;;4.03;2.22;;;;;;;;;;5103388;27;38972;-67
2023/07/17 05:13:21;;;;;;;3.47;1.90;;;;;;;;;;5122283;27;41370;-67
2023/07/17 05:15:50;;;;;;;3.47;2.13;;;;;;;;;;5106838;28;40866;-67
2023/07/17 05:18:18;;;;;;;4.72;2.35;;;;;;;;;;5105201;28;40563;-67
2023/07/17 05:20:47;;;;;;;4.00;1.92;;;;;;;;;;5102851;28;40246;-67
2023/07/17 05:23:17;;;;;;;3.42;2.15;;;;;;;;;;5105915;28;39330;-67
2023/07/17 05:25:51;;;;;;;5.45;2.35;;;;;;;;;;5092623;28;40270;-67
2023/07/17 05:28:21;;;;;;;3.63;2.10;;;;;;;;;;5105767;28;40658;-67
2023/07/17 05:30:50;;;;;;;3.95;2.40;;;;;;;;;;5105656;28;39160;-67
2023/07/17 05:33:19;;;;;;;4.80;2.58;;;;;;;;;;5104519;28;41004;-68
2023/07/17 05:35:47;;;;;;;4.53;2.50;;;;;;;;;;5106272;28;42367;-67
2023/07/17 05:38:15;;;;;;;3.20;1.98;;;;;;;;;;5107116;28;41303;-67
2023/07/17 05:40:46;;;;;;;3.13;2.03;;;;;;;;;;5123205;27;40544;-68
2023/07/17 05:43:14;;;;;;;4.82;2.47;;;;;;;;;;5106277;28;38774;-67
2023/07/17 05:45:53;;;;;;;3.58;2.10;;;;;;;;;;5104980;28;41259;-67
2023/07/17 05:48:21;;;;;;;4.85;2.25;;;;;;;;;;5105634;28;41247;-68
2023/07/17 05:50:51;;;;;;;4.03;2.45;;;;;;;;;;5106351;28;39436;-67
2023/07/17 05:53:19;;;;;;;2.90;1.95;;;;;;;;;;5093695;28;40283;-67
2023/07/17 05:55:48;;;;;;;4.40;2.30;;;;;;;;;;5099700;28;42446;-67
2023/07/17 05:58:16;;;;;;;4.38;2.47;;;;;;;;;;5094370;28;40970;-67
2023/07/17 06:00:45;;;;;;;4.47;2.28;;;;;;;;;;5105639;28;40357;-67
2023/07/17 06:03:13;;;;;;;3.90;2.38;;;;;;;;;;5105476;28;39243;-67
2023/07/17 06:05:41;;;;;;;4.55;2.47;;;;;;;;;;5105109;27;43821;-68
2023/07/17 06:08:10;;;;;;;6.30;3.17;;;;;;;;;;5105247;27;43327;-67
2023/07/17 06:10:38;;;;;;;2.97;2.40;;;;;;;;;;5091148;28;40692;-67
2023/07/17 06:13:08;;;;;;;3.45;2.53;;;;;;;;;;5086845;28;40347;-67
2023/07/17 06:15:36;;;;;;;3.83;2.83;;;;;;;;;;5104567;28;41438;-67
2023/07/17 06:18:04;;;;;;;4.57;2.75;;;;;;;;;;5107523;27;40932;-67
2023/07/17 06:20:32;;;;;;;4.00;2.38;;;;;;;;;;5105957;27;41590;-67
2023/07/17 06:23:00;;;;;;;3.85;2.60;;;;;;;;;;5093611;27;40303;-67
2023/07/17 06:25:28;;;;;;;4.15;2.78;;;;;;;;;;5089699;28;42200;-67
2023/07/17 06:27:56;;;;;;;4.70;2.85;;;;;;;;;;5089054;28;43166;-67
2023/07/17 06:30:25;;;;;;;4.55;3.05;;;;;;;;;;5092663;28;42166;-68
2023/07/17 06:32:53;;;;;;;6.20;3.38;;;;;;;;;;5111188;27;41742;-67
2023/07/17 06:35:21;;;;;;;3.63;2.42;;;;;;;;;;5107725;28;40651;-67
2023/07/17 06:37:49;;;;;;;4.30;2.90;;;;;;;;;;5110767;27;40370;-67
2023/07/17 06:40:17;;;;;;;5.75;3.08;;;;;;;;;;5110376;27;41931;-67
2023/07/17 06:42:45;;;;;;;4.85;3.08;;;;;;;;;;5109989;27;42320;-67
2023/07/17 06:45:13;;;;;;;5.55;3.47;;;;;;;;;;5110166;27;41678;-67
2023/07/17 06:47:43;;;;;;;7.13;3.00;;;;;;;;;;5109727;27;42890;-68
2023/07/17 06:50:11;;;;;;;6.55;2.90;;;;;;;;;;5109146;27;40365;-67
2023/07/17 06:52:39;;;;;;;5.72;3.50;;;;;;;;;;5109725;27;42035;-67
2023/07/17 06:55:08;;;;;;;7.95;3.95;;;;;;;;;;5110110;27;42470;-67
2023/07/17 06:57:36;;;;;;;6.80;3.53;;;;;;;;;;5108550;27;41293;-68
2023/07/17 07:00:05;;;;;;;5.03;3.28;;;;;;;;;;5110337;27;41494;-67
2023/07/17 07:02:33;;;;;;;7.05;3.58;;;;;;;;;;5108761;27;42809;-67
2023/07/17 07:05:03;;;;;;;5.95;3.28;;;;;;;;;;5110305;27;40424;-67
2023/07/17 07:07:31;;;;;;;8.82;3.70;;;;;;;;;;5107684;27;41940;-68
2023/07/17 07:09:59;;;;;;;5.78;3.60;;;;;;;;;;5101466;27;40374;-67
2023/07/17 07:12:27;;;;;;;6.65;4.00;;;;;;;;;;5109493;27;42325;-67
2023/07/17 07:14:55;;;;;;;11.65;5.82;;;;;;;;;;5100427;27;42287;-63
2023/07/17 07:17:23;;;;;;;17.00;7.00;;;;;;;;;;5108033;27;40447;-63
2023/07/17 07:19:51;;;;;;;15.73;7.47;;;;;;;;;;5109549;27;41680;-62
2023/07/17 07:22:21;;;;;;;17.48;7.97;;;;;;;;;;5099970;28;41204;-62
2023/07/17 07:24:49;;;;;;;16.48;7.85;;;;;;;;;;5097195;28;40302;-62
2023/07/17 07:27:17;;;;;;;18.50;7.60;;;;;;;;;;5101394;27;42516;-63
2023/07/17 07:29:45;;;;;;;14.23;7.25;;;;;;;;;;5104651;28;39983;-62
2023/07/17 07:32:13;;;;;;;13.65;7.00;;;;;;;;;;5107554;27;42579;-63
2023/07/17 07:34:41;;;;;;;19.83;8.10;;;;;;;;;;5101274;27;42287;-62
2023/07/17 07:37:09;;;;;;;14.25;7.72;;;;;;;;;;5103133;28;41288;-63
2023/07/17 07:39:38;;;;;;;12.88;7.38;;;;;;;;;;5102496;27;41133;-62
2023/07/17 07:42:07;;;;;;;14.27;7.10;;;;;;;;;;5106348;28;43290;-63
2023/07/17 07:44:35;;;;;;;14.55;7.40;;;;;;;;;;5102444;27;42083;-63
2023/07/17 07:47:05;;;;;;;21.60;7.60;;;;;;;;;;5109282;27;41737;-63
2023/07/17 07:49:32;;;;;;;14.23;7.80;;;;;;;;;;5104942;27;42348;-63
2023/07/17 07:52:00;;;;;;;16.20;7.22;;;;;;;;;;5101596;27;41936;-61
2023/07/17 07:54:28;;;;;;;15.20;7.38;;;;;;;;;;5104096;27;43937;-63
2023/07/17 07:56:58;;;;;;;15.00;7.00;;;;;;;;;;5090983;28;40252;-65
2023/07/17 07:59:26;;;;;;;14.63;7.63;;;;;;;;;;5092648;28;41569;-64
2023/07/17 08:01:54;;;;;;;17.05;6.90;;;;;;;;;;5109126;27;43143;-66
2023/07/17 08:04:22;;;;;;;13.70;6.38;;;;;;;;;;5099172;27;40916;-67
2023/07/17 08:06:50;;;;;;;13.48;7.85;;;;;;;;;;5101110;28;42556;-67
2023/07/17 08:09:18;;;;;;;12.63;6.70;;;;;;;;;;5105604;27;42890;-67
2023/07/17 08:11:46;;;;;;;12.25;6.50;;;;;;;;;;5096824;27;41003;-67
2023/07/17 08:14:15;;;;;;;16.25;7.70;;;;;;;;;;5103188;27;42145;-68
2023/07/17 08:16:43;;;;;;;13.85;7.28;;;;;;;;;;5099275;28;40467;-67
2023/07/17 08:19:12;;;;;;;13.32;7.38;;;;;;;;;;5103952;27;42284;-66
2023/07/17 08:21:40;;;;;;;12.60;6.85;;;;;;;;;;5107340;27;43070;-67
2023/07/17 08:24:08;;;;;;;11.70;6.32;;;;;;;;;;5108904;27;41102;-68
2023/07/17 08:26:36;;;;;;;10.98;6.38;;;;;;;;;;5108056;27;42753;-70
2023/07/17 08:29:04;;;;;;;15.63;6.50;;;;;;;;;;5104422;27;42028;-69
2023/07/17 08:31:33;;;;;;;10.05;5.50;;;;;;;;;;5094805;28;41156;-69
2023/07/17 08:34:02;;;;;;;9.75;6.22;;;;;;;;;;5100326;27;44000;-70
2023/07/17 08:36:31;;;;;;;13.90;6.15;;;;;;;;;;5104146;27;41582;-70
2023/07/17 08:38:59;;;;;;;9.73;5.72;;;;;;;;;;5108686;27;41415;-65
2023/07/17 08:41:27;;;;;;;10.95;5.45;;;;;;;;;;5107292;27;42503;-65
2023/07/17 08:43:55;;;;;;;13.25;6.38;;;;;;;;;;5108442;27;40199;-65
2023/07/17 08:46:23;;;;;;;9.63;5.85;;;;;;;;;;5094642;27;42632;-64
2023/07/17 08:48:53;;;;;;;11.27;6.05;;;;;;;;;;5086967;28;42141;-65
2023/07/17 08:51:21;;;;;;;12.57;5.60;;;;;;;;;;5089878;27;39270;-65
2023/07/17 08:53:49;;;;;;;11.10;5.30;;;;;;;;;;5087996;28;41727;-66
2023/07/17 08:56:17;;;;;;;9.57;5.40;;;;;;;;;;5098337;27;40581;-66
2023/07/17 08:58:45;;;;;;;10.05;5.38;;;;;;;;;;5100165;28;41825;-66
2023/07/17 09:01:13;;;;;;;11.88;5.45;;;;;;;;;;5105256;27;42191;-66
2023/07/17 09:03:41;;;;;;;11.80;5.18;;;;;;;;;;5095331;27;40260;-66
2023/07/17 09:06:13;;;;;;;13.77;4.57;;;;;;;;;;5090335;27;41770;-67
2023/07/17 09:08:41;;;;;;;10.38;5.05;;;;;;;;;;5104279;28;42041;-67
2023/07/17 09:11:09;;;;;;;8.98;4.43;;;;;;;;;;5106662;27;41380;-67
2023/07/17 09:13:38;;;;;;;12.77;4.75;;;;;;;;;;5107619;27;42621;-67
2023/07/17 09:16:12;;;;;;;11.55;4.43;;;;;;;;;;5105938;27;43100;-67
2023/07/17 09:18:40;;;;;;;10.98;4.72;;;;;;;;;;5107276;27;41173;-67
2023/07/17 09:21:09;;;;;;;14.32;4.80;;;;;;;;;;5107703;27;42002;-67
2023/07/17 09:23:41;;;;;;;12.23;4.47;;;;;;;;;;5105704;28;41343;-68
2023/07/17 09:26:09;;;;;;;11.10;4.85;;;;;;;;;;5107376;27;41297;-66
2023/07/17 09:28:38;;;;;;;19.85;5.28;;;;;;;;;;5106888;27;42746;-66
2023/07/17 09:31:06;;;;;;;8.45;4.50;;;;;;;;;;5106481;27;41978;-67
2023/07/17 09:33:37;;;;;;;12.75;4.20;;;;;;;;;;5106712;27;42593;-67
2023/07/17 09:36:05;;;;;;;11.15;4.68;;;;;;;;;;5107651;27;43069;-67
2023/07/17 09:38:33;;;;;;;10.30;4.15;;;;;;;;;;5104535;27;40419;-67
2023/07/17 09:41:04;;;;;;;8.82;4.60;;;;;;;;;;5086918;28;42792;-67
2023/07/17 09:43:32;;;;;;;10.00;4.60;;;;;;;;;;5096776;28;41710;-66
2023/07/17 09:46:01;;;;;;;7.85;4.32;;;;;;;;;;5106162;27;42443;-67
2023/07/17 09:48:30;;;;;;;16.30;4.90;;;;;;;;;;5106592;27;42219;-68
2023/07/17 09:50:58;;;;;;;8.20;4.07;;;;;;;;;;5107813;27;41457;-68
2023/07/17 09:53:26;;;;;;;6.18;4.00;;;;;;;;;;5106113;27;41629;-68
2023/07/17 09:55:54;;;;;;;7.35;4.18;;;;;;;;;;5095777;27;43059;-67
2023/07/17 09:58:24;;;;;;;10.57;4.50;;;;;;;;;;5085443;28;39996;-67
2023/07/17 10:00:52;;;;;;;8.57;4.15;;;;;;;;;;5087429;28;41787;-68
2023/07/17 10:03:21;;;;;;;8.18;3.67;;;;;;;;;;5095643;28;41112;-67
2023/07/17 10:05:49;;;;;;;8.00;3.85;;;;;;;;;;5091276;27;42595;-68
2023/07/17 10:08:17;;;;;;;6.95;3.72;;;;;;;;;;5102545;27;41657;-66
2023/07/17 10:10:45;;;;;;;7.63;3.95;;;;;;;;;;5102026;27;40806;-68
2023/07/17 10:13:13;;;;;;;9.32;4.25;;;;;;;;;;5103962;27;42793;-67
2023/07/17 10:15:42;;;;;;;7.75;4.78;;;;;;;;;;5106228;27;42816;-67
2023/07/17 10:18:11;;;;;;;7.30;4.43;;;;;;;;;;5102827;27;41466;-67
2023/07/17 10:20:39;;;;;;;8.07;4.65;;;;;;;;;;5094848;27;40990;-67
2023/07/17 10:23:10;;;;;;;11.55;4.97;;;;;;;;;;5094133;27;32655;-68
2023/07/17 10:25:38;;;;;;;12.13;6.05;;;;;;;;;;5093594;28;40966;-68
2023/07/17 10:28:06;;;;;;;9.35;5.13;;;;;;;;;;5098941;27;42068;-68
2023/07/17 10:30:35;;;;;;;6.47;3.95;;;;;;;;;;5089888;27;39909;-68
2023/07/17 10:33:08;;;;;;;7.40;3.47;;;;;;;;;;5088004;28;42301;-68
2023/07/17 10:35:48;;;;;;;8.30;3.40;;;;;;;;;;5103877;27;42134;-68
2023/07/17 10:38:17;;;;;;;7.20;3.80;;;;;;;;;;5104165;27;42056;-68
2023/07/17 10:40:45;;;;;;;6.53;3.45;;;;;;;;;;5104343;27;42278;-68
2023/07/17 10:43:14;;;;;;;8.77;3.70;;;;;;;;;;5104857;27;42650;-68
2023/07/17 10:45:42;;;;;;;6.20;3.13;;;;;;;;;;5097646;27;42188;-68
2023/07/17 10:48:11;;;;;;;10.05;3.58;;;;;;;;;;5082934;28;42184;-67
2023/07/17 10:50:39;;;;;;;8.65;3.78;;;;;;;;;;5083049;28;40954;-67
2023/07/17 10:53:09;;;;;;;11.63;3.97;;;;;;;;;;5085046;28;42053;-68
2023/07/17 10:55:37;;;;;;;7.95;3.35;;;;;;;;;;5086419;28;42752;-67
2023/07/17 10:58:05;;;;;;;7.85;4.00;;;;;;;;;;5105746;27;39782;-68
2023/07/17 11:00:34;;;;;;;8.52;3.67;;;;;;;;;;5101422;27;41728;-68
2023/07/17 11:03:03;;;;;;;13.50;3.80;;;;;;;;;;5087791;27;41707;-68
2023/07/17 11:05:32;;;;;;;11.45;3.85;;;;;;;;;;5095606;28;40370;-71
2023/07/17 11:08:00;;;;;;;10.75;4.15;;;;;;;;;;5099385;28;43202;-69
2023/07/17 11:10:28;;;;;;;6.75;3.70;;;;;;;;;;5095167;28;40457;-68
2023/07/17 11:12:59;;;;;;;5.88;2.70;;;;;;;;;;5107428;28;41272;-69
2023/07/17 11:15:27;;;;;;;14.30;3.38;;;;;;;;;;5104375;27;41447;-68
2023/07/17 11:17:55;;;;;;;6.82;2.00;;;;;;;;;;5105635;27;40898;-67
2023/07/17 11:20:23;;;;;;;9.85;2.50;;;;;;;;;;5104556;28;42623;-68
2023/07/17 11:22:52;;;;;;;4.75;2.00;;;;;;;;;;5102397;27;42272;-69
2023/07/17 11:25:20;;;;;;;3.80;1.45;;;;;;;;;;5097330;28;40261;-71
2023/07/17 11:27:50;;;;;;;4.57;1.40;;;;;;;;;;5103746;27;41808;-73
2023/07/17 11:30:18;;;;;;;3.80;1.60;;;;;;;;;;5099389;28;40429;-66
2023/07/17 11:33:00;;;;;;;4.15;1.35;;;;;;;;;;5101058;27;20263;-66
2023/07/17 11:35:38;;;;;;;3.33;1.38;;;;;;;;;;5099939;28;42808;-67
2023/07/17 11:38:07;;;;;;;3.92;1.30;;;;;;;;;;5099113;28;41388;-68
2023/07/17 11:40:49;;;;;;;5.32;1.45;;;;;;;;;;5100231;28;42468;-68
2023/07/17 11:43:17;;;;;;;2.90;1.42;;;;;;;;;;5097547;28;43587;-67
2023/07/17 11:45:45;;;;;;;3.50;1.40;;;;;;;;;;5098198;27;40063;-63
2023/07/17 11:48:13;;;;;;;4.35;1.40;;;;;;;;;;5101799;27;41469;-63
2023/07/17 11:50:41;;;;;;;5.43;1.50;;;;;;;;;;5098728;28;43935;-63
2023/07/17 11:53:11;;;;;;;1.52;1.13;;;;;;;;;;5099561;28;41994;-63
2023/07/17 11:55:40;;;;;;;3.90;1.60;;;;;;;;;;5097976;28;42242;-63
2023/07/17 11:58:15;;;;;;;2.63;1.42;;;;;;;;;;5099445;27;40778;-64
2023/07/17 12:00:43;;;;;;;2.58;1.30;;;;;;;;;;5100259;28;41629;-64
2023/07/17 12:03:11;;;;;;;3.63;1.52;;;;;;;;;;5107549;27;42310;-64
2023/07/17 12:05:39;;;;;;;4.05;1.35;;;;;;;;;;5104944;28;40358;-64
2023/07/17 12:08:07;;;;;;;5.80;1.98;;;;;;;;;;5108367;27;41688;-64
2023/07/17 12:10:37;;;;;;;8.95;1.67;;;;;;;;;;5102021;27;41791;-64
2023/07/17 12:13:05;;;;;;;18.48;2.22;;;;;;;;;;5097214;28;40544;-63
2023/07/17 12:15:33;;;;;;;17.88;2.50;;;;;;;;;;5106075;27;41243;-64
2023/07/17 12:18:01;;;;;;;8.38;2.55;;;;;;;;;;5107624;27;41979;-64
2023/07/17 12:20:32;;;;;;;14.25;2.90;;;;;;;;;;5090642;28;42428;-66
2023/07/17 12:23:00;;;;;;;11.75;2.25;;;;;;;;;;5101785;28;42110;-64
2023/07/17 12:25:29;;;;;;;14.50;2.83;;;;;;;;;;5106512;27;40871;-64
2023/07/17 12:28:00;;;;;;;10.13;2.70;;;;;;;;;;5107083;27;41967;-64
2023/07/17 12:30:29;;;;;;;9.20;2.58;;;;;;;;;;5102462;27;43140;-64
2023/07/17 12:32:58;;;;;;;12.52;3.45;;;;;;;;;;5101101;28;39638;-64
2023/07/17 12:35:29;;;;;;;12.95;3.50;;;;;;;;;;5095895;28;42210;-64
2023/07/17 12:37:57;;;;;;;7.38;3.67;;;;;;;;;;5097767;28;40450;-64
2023/07/17 12:40:25;;;;;;;19.60;3.90;;;;;;;;;;5106698;27;41668;-63
2023/07/17 12:42:53;;;;;;;12.85;3.42;;;;;;;;;;5108096;27;42915;-66
2023/07/17 12:45:25;;;;;;;12.80;3.97;;;;;;;;;;5107476;27;40541;-63
2023/07/17 12:47:53;;;;;;;15.35;4.20;;;;;;;;;;5087183;27;42401;-62
2023/07/17 12:50:21;;;;;;;14.75;3.70;;;;;;;;;;5087128;28;43228;-61
2023/07/17 12:52:49;;;;;;;16.67;3.90;;;;;;;;;;5097725;28;40522;-66
2023/07/17 12:55:17;;;;;;;20.20;4.28;;;;;;;;;;5085821;28;43589;-63
2023/07/17 12:57:45;;;;;;;13.40;3.60;;;;;;;;;;5085329;28;39959;-66
2023/07/17 13:00:14;;;;;;;15.40;3.92;;;;;;;;;;5093919;28;42255;-69
2023/07/17 13:02:44;;;;;;;18.90;4.13;;;;;;;;;;5106133;28;43004;-66
2023/07/17 13:05:12;;;;;;;11.27;3.55;;;;;;;;;;5106257;27;40140;-65
2023/07/17 13:07:40;;;;;;;8.43;3.33;;;;;;;;;;5106321;28;41144;-62
2023/07/17 13:10:09;;;;;;;12.57;3.60;;;;;;;;;;5106799;28;41924;-64
2023/07/17 13:12:37;;;;;;;9.57;3.53;;;;;;;;;;5106176;28;40333;-64
2023/07/17 13:15:16;;;;;;;9.70;3.90;;;;;;;;;;5104558;28;42363;-66
2023/07/17 13:17:46;;;;;;;8.93;3.53;;;;;;;;;;5105375;28;41713;-66
2023/07/17 13:20:14;;;;;;;11.85;3.97;;;;;;;;;;5105289;27;41598;-66
2023/07/17 13:22:42;;;;;;;9.65;3.92;;;;;;;;;;5104529;27;41748;-68
2023/07/17 13:25:10;;;;;;;10.15;3.78;;;;;;;;;;5104927;27;40520;-65
2023/07/17 13:27:38;;;;;;;10.15;3.63;;;;;;;;;;5104197;27;40847;-68
2023/07/17 13:30:07;;;;;;;11.25;3.60;;;;;;;;;;5104799;27;41922;-68
2023/07/17 13:32:35;;;;;;;7.22;3.30;;;;;;;;;;5105489;27;42449;-64
2023/07/17 13:35:04;;;;;;;9.02;3.90;;;;;;;;;;5106737;27;42171;-67
2023/07/17 13:37:32;;;;;;;7.85;3.35;;;;;;;;;;5105372;27;42787;-62
2023/07/17 13:40:00;;;;;;;8.27;3.80;;;;;;;;;;5107263;27;39990;-63
2023/07/17 13:42:28;;;;;;;13.85;4.50;;;;;;;;;;5105821;27;42348;-66
2023/07/17 13:44:59;;;;;;;16.73;4.40;;;;;;;;;;5105608;27;39921;-63
2023/07/17 13:47:27;;;;;;;20.40;4.88;;;;;;;;;;5105782;27;41577;-64
2023/07/17 13:49:56;;;;;;;11.65;4.63;;;;;;;;;;5106204;27;42830;-67
2023/07/17 13:52:25;;;;;;;11.45;4.88;;;;;;;;;;5105595;27;41037;-66
2023/07/17 13:54:53;;;;;;;9.38;4.35;;;;;;;;;;5106497;27;41601;-68
2023/07/17 13:57:21;;;;;;;12.48;4.60;;;;;;;;;;5105633;27;43267;-68
2023/07/17 13:59:49;;;;;;;11.38;4.50;;;;;;;;;;5106773;27;40182;-67
2023/07/17 14:02:21;;;;;;;10.05;4.45;;;;;;;;;;5106961;27;41065;-66
2023/07/17 14:04:49;;;;;;;15.77;4.88;;;;;;;;;;5105928;27;40594;-65
2023/07/17 14:07:17;;;;;;;8.85;4.15;;;;;;;;;;5106387;27;41874;-66
2023/07/17 14:09:47;;;;;;;15.23;4.82;;;;;;;;;;5106882;27;43174;-68
2023/07/17 14:12:14;;;;;;;10.63;4.68;;;;;;;;;;5106042;27;40785;-66
2023/07/17 14:14:43;;;;;;;7.82;3.83;;;;;;;;;;5106094;27;41442;-67
2023/07/17 14:17:11;;;;;;;9.18;3.97;;;;;;;;;;5106180;27;42058;-68
2023/07/17 14:19:39;;;;;;;11.23;4.15;;;;;;;;;;5104508;27;40380;-66
2023/07/17 14:22:07;;;;;;;10.30;4.30;;;;;;;;;;5106356;27;42189;-66
2023/07/17 14:24:35;;;;;;;6.75;4.07;;;;;;;;;;5105681;27;42064;-67
2023/07/17 14:27:04;;;;;;;10.73;4.00;;;;;;;;;;5105229;27;42147;-66
2023/07/17 14:29:32;;;;;;;6.13;3.55;;;;;;;;;;5104757;27;42454;-66
2023/07/17 14:32:00;;;;;;;9.35;4.10;;;;;;;;;;5115459;27;41105;-66
2023/07/17 14:34:28;;;;;;;8.95;3.92;;;;;;;;;;5116196;27;41661;-67
2023/07/17 14:36:56;;;;;;;8.90;4.35;;;;;;;;;;5106559;27;42851;-66
2023/07/17 14:39:24;;;;;;;7.00;3.50;;;;;;;;;;5104982;27;40429;-65
2023/07/17 14:41:52;;;;;;;6.47;3.88;;;;;;;;;;5099586;27;42610;-66
2023/07/17 14:44:22;;;;;;;8.50;3.47;;;;;;;;;;5085497;28;42066;-66
2023/07/17 14:46:50;;;;;;;14.95;4.22;;;;;;;;;;5093590;27;41575;-68